Time;durP1;ratioP1;P1;durP2;ratioP2;P2;SDS_P1;SDS_P2;PMS_P1;PMS_P2;Temp;Humidity;BMP_temperature;BMP_pressure;BME280_temperature;BME280_humidity;BME280_pressure;Samples;Min_cycle;Max_cycle;Signal;HPM_P1;HPM_P2
2023/12/11 00:01:31;;;;;;;;;;;;;;;21.90;22.57;97969.28;5075083;28;1099;-76
2023/12/11 00:03:57;;;;;;;;;;;;;;;21.67;22.91;97967.50;5058091;28;1568;-76
2023/12/11 00:06:22;;;;;;;;;;;;;;;21.64;22.70;97971.19;5057715;28;1012;-76
2023/12/11 00:08:48;;;;;;;;;;;;;;;21.59;22.94;97969.72;5074535;28;1910;-76
2023/12/11 00:11:14;;;;;;;;;;;;;;;21.72;22.57;97970.56;5074920;28;1134;-76
2023/12/11 00:13:39;;;;;;;;;;;;;;;21.36;23.39;97975.59;5074434;28;950;-76
2023/12/11 00:16:05;;;;;;;;;;;;;;;21.54;23.04;97975.91;5040968;28;953;-76
2023/12/11 00:18:31;;;;;;;;;;;;;;;21.82;22.41;97992.13;5074526;28;1022;-76
2023/12/11 00:20:56;;;;;;;;;;;;;;;21.73;22.57;97986.31;5074421;28;1007;-76
2023/12/11 00:23:22;;;;;;;;;;;;;;;21.62;22.85;97988.66;5073747;28;1238;-75
2023/12/11 00:25:47;;;;;;;;;;;;;;;21.82;22.60;97986.47;5074185;28;1072;-75
2023/12/11 00:28:13;;;;;;;;;;;;;;;21.76;22.77;97984.63;5074492;28;1902;-76
2023/12/11 00:30:39;;;;;;;;;;;;;;;21.82;22.80;97977.97;5090919;28;1022;-76
2023/12/11 00:33:04;;;;;;;;;;;;;;;21.67;23.03;97973.94;5074449;28;1085;-76
2023/12/11 00:35:30;;;;;;;;;;;;;;;21.77;23.05;97972.06;5074250;28;977;-76
2023/12/11 00:37:55;;;;;;;;;;;;;;;21.69;22.90;97984.81;5091095;28;1021;-75
2023/12/11 00:40:21;;;;;;;;;;;;;;;21.49;23.13;97984.94;5054046;28;951;-75
2023/12/11 00:42:47;;;;;;;;;;;;;;;21.81;22.81;97984.88;5054288;28;989;-76
2023/12/11 00:45:13;;;;;;;;;;;;;;;21.92;22.78;97978.94;4994812;28;1118;-76
2023/12/11 00:47:39;;;;;;;;;;;;;;;21.43;23.06;97955.59;4992686;28;1906;-76
2023/12/11 00:50:05;;;;;;;;;;;;;;;21.36;23.39;97973.56;4998040;28;998;-76
2023/12/11 00:52:30;;;;;;;;;;;;;;;21.27;23.58;97985.47;5014190;28;978;-75
2023/12/11 00:54:56;;;;;;;;;;;;;;;21.82;22.96;97977.97;4997832;28;1133;-75
2023/12/11 00:57:22;;;;;;;;;;;;;;;21.86;22.92;97980.69;5014275;28;1174;-76
2023/12/11 00:59:47;;;;;;;;;;;;;;;21.80;23.21;97980.44;5014241;28;1018;-75
2023/12/11 01:02:13;;;;;;;;;;;;;;;21.57;23.37;97978.66;5014330;28;1057;-75
2023/12/11 01:04:39;;;;;;;;;;;;;;;21.85;23.02;97968.56;4997567;28;987;-76
2023/12/11 01:07:04;;;;;;;;;;;;;;;21.79;22.84;97969.56;5013953;28;936;-76
2023/12/11 01:09:30;;;;;;;;;;;;;;;21.85;23.00;97967.78;5030259;28;1910;-76
2023/12/11 01:11:56;;;;;;;;;;;;;;;21.56;23.42;97973.44;5045140;28;1131;-76
2023/12/11 01:14:21;;;;;;;;;;;;;;;21.51;23.54;97962.66;5017330;28;1330;-76
2023/12/11 01:16:47;;;;;;;;;;;;;;;21.55;23.50;97966.16;5047793;28;1416;-75
2023/12/11 01:19:12;;;;;;;;;;;;;;;21.90;23.07;97966.44;5076021;28;1004;-76
2023/12/11 01:21:38;;;;;;;;;;;;;;;21.95;22.96;97965.88;5076410;28;913;-75
2023/12/11 01:24:04;;;;;;;;;;;;;;;21.94;22.80;97955.81;5057981;28;1300;-75
2023/12/11 01:26:29;;;;;;;;;;;;;;;21.52;23.27;97950.09;5074543;28;883;-75
2023/12/11 01:28:55;;;;;;;;;;;;;;;21.68;23.29;97957.75;5074964;28;1918;-76
2023/12/11 01:31:20;;;;;;;;;;;;;;;21.86;22.84;97952.38;5075977;28;925;-76
2023/12/11 01:33:46;;;;;;;;;;;;;;;21.99;22.74;97949.59;5041242;28;1102;-76
2023/12/11 01:36:12;;;;;;;;;;;;;;;21.69;23.16;97954.47;5078371;28;1031;-75
2023/12/11 01:38:37;;;;;;;;;;;;;;;21.77;23.15;97955.88;5060541;28;1210;-75
2023/12/11 01:41:03;;;;;;;;;;;;;;;21.79;22.94;97947.69;5061050;28;1078;-76
2023/12/11 01:43:28;;;;;;;;;;;;;;;21.71;23.25;97940.66;5077312;28;981;-76
2023/12/11 01:46:08;;;;;;;;;;;;;;;21.47;23.31;97942.13;5077572;28;999;-76
2023/12/11 01:48:33;;;;;;;;;;;;;;;21.61;23.15;97955.91;5076990;28;1976;-76
2023/12/11 01:50:59;;;;;;;;;;;;;;;21.51;23.15;97959.84;5094709;28;979;-76
2023/12/11 01:53:25;;;;;;;;;;;;;;;21.65;23.11;97958.63;5077065;28;1181;-76
2023/12/11 01:55:51;;;;;;;;;;;;;;;21.56;23.28;97962.91;5094296;28;974;-76
2023/12/11 01:58:17;;;;;;;;;;;;;;;21.70;22.95;97961.72;5077077;28;1025;-75
2023/12/11 02:00:42;;;;;;;;;;;;;;;21.91;22.86;97957.47;5077349;28;978;-75
2023/12/11 02:03:09;;;;;;;;;;;;;;;21.66;23.03;97944.03;5094047;28;1104;-75
2023/12/11 02:05:34;;;;;;;;;;;;;;;21.69;23.26;97957.28;5077073;28;1129;-76
2023/12/11 02:08:00;;;;;;;;;;;;;;;21.76;23.31;97950.63;5093980;28;1905;-75
2023/12/11 02:10:26;;;;;;;;;;;;;;;21.58;23.44;97953.97;5108599;28;976;-76
2023/12/11 02:12:51;;;;;;;;;;;;;;;21.82;23.13;97960.97;5077389;28;1188;-75
2023/12/11 02:15:35;;;;;;;;;;;;;;;21.69;23.06;97962.97;5023605;28;1093;-75
2023/12/11 02:18:01;;;;;;;;;;;;;;;21.66;23.11;97966.69;5056873;28;1017;-75
2023/12/11 02:20:27;;;;;;;;;;;;;;;21.70;23.13;97972.25;5040289;28;990;-75
2023/12/11 02:22:52;;;;;;;;;;;;;;;21.81;22.99;97967.91;5036547;28;1253;-75
2023/12/11 02:25:18;;;;;;;;;;;;;;;21.82;23.17;97960.97;5053376;28;976;-76
2023/12/11 02:27:43;;;;;;;;;;;;;;;21.52;23.56;97955.75;5053135;28;1918;-75
2023/12/11 02:30:09;;;;;;;;;;;;;;;21.76;23.22;97959.94;5036465;28;1094;-76
2023/12/11 02:32:35;;;;;;;;;;;;;;;21.74;23.22;97955.97;5036331;28;1318;-76
2023/12/11 02:35:00;;;;;;;;;;;;;;;21.87;23.04;97953.19;5016411;28;998;-76
2023/12/11 02:37:26;;;;;;;;;;;;;;;21.86;23.22;97958.03;4984073;28;973;-75
2023/12/11 02:39:51;;;;;;;;;;;;;;;21.75;23.09;97969.66;5000143;28;975;-76
2023/12/11 02:42:17;;;;;;;;;;;;;;;21.63;23.40;97961.91;5000171;28;1039;-76
2023/12/11 02:44:42;;;;;;;;;;;;;;;21.57;23.30;97963.72;5016443;28;920;-75
2023/12/11 02:47:08;;;;;;;;;;;;;;;21.68;23.29;97957.75;4983434;28;1237;-76
2023/12/11 02:49:34;;;;;;;;;;;;;;;21.57;23.28;97958.84;5000316;28;1915;-76
2023/12/11 02:51:59;;;;;;;;;;;;;;;21.51;23.38;97954.16;4991979;28;1035;-76
2023/12/11 02:54:25;;;;;;;;;;;;;;;21.83;22.83;97958.94;5042612;28;1026;-75
2023/12/11 02:56:51;;;;;;;;;;;;;;;21.60;23.22;97968.47;5076109;28;954;-76
2023/12/11 02:59:16;;;;;;;;;;;;;;;21.50;23.53;97952.56;5035942;28;981;-75
2023/12/11 03:01:42;;;;;;;;;;;;;;;21.65;23.33;97953.75;5036221;28;1033;-76
2023/12/11 03:04:07;;;;;;;;;;;;;;;21.53;23.21;97954.50;5019627;28;976;-75
2023/12/11 03:06:33;;;;;;;;;;;;;;;21.62;23.12;97957.50;5036311;28;1303;-75
2023/12/11 03:09:02;;;;;;;;;;;;;;;21.72;23.10;97953.56;5036324;28;1961;-76
2023/12/11 03:11:28;;;;;;;;;;;;;;;21.63;22.92;97967.59;5037800;28;1012;-75
2023/12/11 03:13:53;;;;;;;;;;;;;;;21.81;22.83;97967.91;5055270;28;1075;-75
2023/12/11 03:16:19;;;;;;;;;;;;;;;21.65;22.81;97959.41;5039308;28;1193;-75
2023/12/11 03:18:44;;;;;;;;;;;;;;;21.58;23.03;97959.63;5039165;28;1286;-75
2023/12/11 03:21:10;;;;;;;;;;;;;;;21.66;22.73;97955.38;5055543;28;1119;-76
2023/12/11 03:23:37;;;;;;;;;;;;;;;21.28;23.28;97950.25;5055708;28;1040;-75
2023/12/11 03:26:02;;;;;;;;;;;;;;;21.57;22.93;97956.00;5039049;28;943;-75
2023/12/11 03:28:28;;;;;;;;;;;;;;;21.75;22.89;97941.34;5055361;28;1902;-76
2023/12/11 03:30:54;;;;;;;;;;;;;;;21.84;22.79;97950.00;5070569;28;1090;-75
2023/12/11 03:33:19;;;;;;;;;;;;;;;21.76;22.90;97942.13;5092453;28;1132;-75
2023/12/11 03:35:45;;;;;;;;;;;;;;;21.63;23.11;97939.25;5075471;28;936;-76
2023/12/11 03:38:10;;;;;;;;;;;;;;;21.96;22.70;97944.81;5058420;28;1217;-75
2023/12/11 03:40:36;;;;;;;;;;;;;;;21.70;22.85;97941.88;5058767;28;1005;-75
2023/12/11 03:43:02;;;;;;;;;;;;;;;21.57;23.07;97938.22;5055084;28;1219;-75
2023/12/11 03:45:27;;;;;;;;;;;;;;;21.64;23.10;97938.00;5055281;28;978;-75
2023/12/11 03:47:53;;;;;;;;;;;;;;;21.76;22.98;97931.63;5038461;28;1902;-76
2023/12/11 03:50:19;;;;;;;;;;;;;;;21.62;22.91;97932.03;5054955;28;1002;-75
2023/12/11 03:52:44;;;;;;;;;;;;;;;21.74;22.75;97927.63;5052766;28;966;-75
2023/12/11 03:55:10;;;;;;;;;;;;;;;21.68;23.03;97924.56;5075138;28;1008;-75
2023/12/11 03:57:35;;;;;;;;;;;;;;;21.75;23.01;97930.00;5074225;28;901;-76
2023/12/11 04:00:01;;;;;;;;;;;;;;;21.70;22.75;97927.72;5058019;28;931;-75
2023/12/11 04:02:27;;;;;;;;;;;;;;;21.85;22.60;97925.28;5074930;28;1235;-76
2023/12/11 04:04:52;;;;;;;;;;;;;;;21.88;22.45;97926.44;5074954;28;982;-76
2023/12/11 04:07:18;;;;;;;;;;;;;;;21.56;22.99;97933.81;5038192;28;989;-75
2023/12/11 04:09:44;;;;;;;;;;;;;;;21.67;22.84;97920.16;5038113;28;1913;-76
2023/12/11 04:12:09;;;;;;;;;;;;;;;21.67;22.79;97925.00;5034498;28;1013;-75
2023/12/11 04:14:35;;;;;;;;;;;;;;;21.73;22.65;97929.69;5035011;28;993;-76
2023/12/11 04:17:01;;;;;;;;;;;;;;;21.76;23.01;97914.63;5018046;28;1101;-75
2023/12/11 04:19:26;;;;;;;;;;;;;;;21.40;23.27;97914.00;5034685;28;1011;-76
2023/12/11 04:21:52;;;;;;;;;;;;;;;21.51;23.17;97877.72;5018319;28;1110;-75
2023/12/11 04:24:17;;;;;;;;;;;;;;;21.68;23.14;97920.94;5017959;28;1066;-75
2023/12/11 04:26:43;;;;;;;;;;;;;;;21.77;22.83;97927.53;5001626;28;1112;-76
2023/12/11 04:29:09;;;;;;;;;;;;;;;21.67;23.14;97913.69;5034064;28;1989;-76
2023/12/11 04:31:34;;;;;;;;;;;;;;;21.73;23.09;97915.50;4995028;28;1049;-75
2023/12/11 04:34:00;;;;;;;;;;;;;;;21.72;23.05;97913.94;4995068;28;958;-76
2023/12/11 04:36:26;;;;;;;;;;;;;;;21.56;23.27;97922.47;4975126;28;1261;-76
2023/12/11 04:38:52;;;;;;;;;;;;;;;21.73;23.16;97921.19;4959560;28;1009;-75
2023/12/11 04:41:17;;;;;;;;;;;;;;;21.71;23.08;97918.00;4975289;28;1008;-76
2023/12/11 04:43:43;;;;;;;;;;;;;;;21.84;22.98;97929.38;4976504;28;1187;-76
2023/12/11 04:46:08;;;;;;;;;;;;;;;21.56;23.24;97911.94;5011679;28;1099;-76
2023/12/11 04:48:34;;;;;;;;;;;;;;;21.74;23.14;97927.63;4996085;28;1981;-76
2023/12/11 04:51:00;;;;;;;;;;;;;;;21.78;23.14;97929.13;5014426;28;1013;-76
2023/12/11 04:53:25;;;;;;;;;;;;;;;21.88;22.87;97929.28;5014186;28;977;-76
2023/12/11 04:55:51;;;;;;;;;;;;;;;21.67;23.27;97942.78;4997796;28;904;-76
2023/12/11 04:58:17;;;;;;;;;;;;;;;21.75;23.00;97929.22;5002353;28;1595;-76
2023/12/11 05:00:42;;;;;;;;;;;;;;;21.75;23.24;97920.72;5032118;28;1438;-76
2023/12/11 05:03:08;;;;;;;;;;;;;;;21.65;23.32;97914.13;5013593;28;1383;-76
2023/12/11 05:05:35;;;;;;;;;;;;;;;21.84;22.88;97921.66;4998118;28;1112;-75
2023/12/11 05:08:01;;;;;;;;;;;;;;;21.69;23.30;97920.47;4994176;28;1898;-76
2023/12/11 05:10:27;;;;;;;;;;;;;;;21.71;23.19;97912.34;4978119;28;977;-76
2023/12/11 05:12:52;;;;;;;;;;;;;;;21.52;23.42;97911.25;4994335;28;1033;-76
2023/12/11 05:15:18;;;;;;;;;;;;;;;21.56;23.25;97905.50;5028038;28;1399;-76
2023/12/11 05:17:44;;;;;;;;;;;;;;;21.70;23.23;97909.94;5053202;28;1604;-76
2023/12/11 05:20:12;;;;;;;;;;;;;;;21.56;23.19;97911.94;5037358;28;996;-76
2023/12/11 05:22:38;;;;;;;;;;;;;;;21.67;23.19;97913.69;5037073;28;1193;-76
2023/12/11 05:25:04;;;;;;;;;;;;;;;21.66;23.45;97927.06;5053788;28;973;-76
2023/12/11 05:27:29;;;;;;;;;;;;;;;21.90;22.83;97924.75;5037004;28;1906;-76
2023/12/11 05:29:55;;;;;;;;;;;;;;;21.82;22.76;97920.53;5036624;28;1463;-76
2023/12/11 05:32:21;;;;;;;;;;;;;;;21.73;23.31;97915.50;5053987;28;1027;-75
2023/12/11 05:34:46;;;;;;;;;;;;;;;21.60;23.27;97917.50;5036940;28;1115;-76
2023/12/11 05:37:12;;;;;;;;;;;;;;;21.56;23.36;97922.47;5037082;28;976;-76
2023/12/11 05:39:38;;;;;;;;;;;;;;;21.62;23.42;97915.03;5097221;28;1452;-76
2023/12/11 05:42:03;;;;;;;;;;;;;;;21.70;23.38;97927.72;5075207;28;1487;-76
2023/12/11 05:44:29;;;;;;;;;;;;;;;21.66;23.30;97938.38;5074855;28;1357;-76
2023/12/11 05:46:54;;;;;;;;;;;;;;;21.78;23.26;97937.63;5091763;28;901;-76
2023/12/11 05:49:20;;;;;;;;;;;;;;;22.03;22.69;97941.78;5074656;28;1910;-76
2023/12/11 05:51:46;;;;;;;;;;;;;;;21.81;23.15;97945.25;5075526;28;896;-77
2023/12/11 05:54:11;;;;;;;;;;;;;;;21.76;23.04;97940.13;5090419;28;1247;-76
2023/12/11 05:56:37;;;;;;;;;;;;;;;21.86;22.87;97949.53;5072377;28;1492;-76
2023/12/11 05:59:02;;;;;;;;;;;;;;;21.71;22.96;97963.31;5036852;28;1000;-76
2023/12/11 06:01:29;;;;;;;;;;;;;;;21.73;23.29;97955.16;5020479;28;1015;-76
2023/12/11 06:03:55;;;;;;;;;;;;;;;21.87;23.22;97961.69;5020521;28;1161;-75
2023/12/11 06:06:20;;;;;;;;;;;;;;;21.85;23.07;97962.91;5033293;28;1021;-75
2023/12/11 06:08:46;;;;;;;;;;;;;;;21.71;22.95;97957.66;5016620;28;1898;-75
2023/12/11 06:11:11;;;;;;;;;;;;;;;21.75;23.20;97964.00;5011885;28;1308;-75
2023/12/11 06:13:37;;;;;;;;;;;;;;;21.83;23.01;97962.56;5013362;28;994;-75
2023/12/11 06:16:03;;;;;;;;;;;;;;;21.72;22.99;97981.91;5029844;28;993;-75
2023/12/11 06:18:28;;;;;;;;;;;;;;;21.84;22.85;97983.97;5013741;28;1499;-78
2023/12/11 06:20:54;;;;;;;;;;;;;;;21.78;22.77;97976.47;5013401;28;1200;-70
2023/12/11 06:23:22;;;;;;;;;;;;;;;22.12;22.36;97987.25;5017045;28;1119;-70
2023/12/11 06:25:48;;;;;;;;;;;;;;;21.57;22.96;97986.34;5033631;28;1012;-71
2023/12/11 06:28:13;;;;;;;;;;;;;;;21.79;22.32;97995.84;5017008;28;1985;-72
2023/12/11 06:30:39;;;;;;;;;;;;;;;22.14;21.69;97984.78;4993958;28;1009;-73
2023/12/11 06:33:05;;;;;;;;;;;;;;;22.36;21.55;97980.06;4977435;28;1635;-73
2023/12/11 06:35:30;;;;;;;;;;;;;;;22.38;21.41;97978.81;4993408;28;2081;-72
2023/12/11 06:37:56;;;;;;;;;;;;;;;22.27;21.41;97968.59;4992347;28;1026;-71
2023/12/11 06:40:21;;;;;;;;;;;;;;;21.92;21.76;97973.25;5013568;28;1113;-70
2023/12/11 06:42:47;;;;;;;;;;;;;;;22.06;21.95;97983.38;4997128;28;966;-70
2023/12/11 06:45:13;;;;;;;;;;;;;;;21.92;22.02;97983.81;4997379;28;1051;-70
2023/12/11 06:47:38;;;;;;;;;;;;;;;21.99;21.76;97994.91;5013428;28;1907;-70
2023/12/11 06:50:04;;;;;;;;;;;;;;;22.37;21.90;98009.22;4997239;28;1848;-71
2023/12/11 06:52:30;;;;;;;;;;;;;;;22.13;22.03;98016.44;5048161;28;993;-70
2023/12/11 06:54:55;;;;;;;;;;;;;;;22.24;22.16;98016.91;5019502;28;997;-70
2023/12/11 06:57:21;;;;;;;;;;;;;;;22.28;21.66;98007.06;5016267;28;1198;-70
2023/12/11 06:59:47;;;;;;;;;;;;;;;22.04;21.89;98003.66;5016200;28;1106;-70
2023/12/11 07:02:12;;;;;;;;;;;;;;;22.07;21.63;98007.63;5016347;28;1007;-70
2023/12/11 07:04:40;;;;;;;;;;;;;;;21.83;22.07;98016.38;4999300;28;1414;-71
2023/12/11 07:07:06;;;;;;;;;;;;;;;22.00;21.49;98013.50;5016411;28;1015;-70
2023/12/11 07:09:32;;;;;;;;;;;;;;;21.94;21.70;98016.09;5062476;28;1898;-71
2023/12/11 07:11:58;;;;;;;;;;;;;;;22.00;21.23;98022.78;5064406;28;1399;-70
2023/12/11 07:14:24;;;;;;;;;;;;;;;22.04;21.22;98025.53;5039123;28;1004;-71
2023/12/11 07:16:50;;;;;;;;;;;;;;;21.65;21.46;98026.59;5055846;28;1032;-70
2023/12/11 07:19:16;;;;;;;;;;;;;;;21.83;21.32;98027.72;5035756;28;1073;-70
2023/12/11 07:21:45;;;;;;;;;;;;;;;22.00;20.75;98024.84;5003010;28;1668;-70
2023/12/11 07:24:11;;;;;;;;;;;;;;;21.72;21.21;98013.06;5019369;28;1889;-70
2023/12/11 07:26:36;;;;;;;;;;;;;;;21.81;21.34;98013.22;5019255;28;992;-70
2023/12/11 07:29:04;;;;;;;;;;;;;;;21.85;20.71;98010.25;5019221;28;1989;-71
2023/12/11 07:31:29;;;;;;;;;;;;;;;21.94;20.72;98018.13;5019386;28;1041;-71
2023/12/11 07:33:55;;;;;;;;;;;;;;;22.11;20.58;98014.03;5024542;28;991;-70
2023/12/11 07:36:21;;;;;;;;;;;;;;;21.97;20.95;98020.09;5058801;28;992;-70
2023/12/11 07:38:47;;;;;;;;;;;;;;;22.19;20.84;98021.09;5075293;28;1584;-70
2023/12/11 07:41:17;;;;;;;;;;;;;;;22.45;20.71;98032.50;5049623;28;1593;-70
2023/12/11 07:43:43;;;;;;;;;;;;;;;22.57;20.52;98040.22;5071785;28;1081;-71
2023/12/11 07:46:14;;;;;;;;;;;;;;;22.66;20.59;98043.19;5055459;28;991;-70
2023/12/11 07:48:40;;;;;;;;;;;;;;;22.70;20.45;98060.91;5071470;28;1902;-74
2023/12/11 07:51:06;;;;;;;;;;;;;;;22.62;20.64;98062.34;5069402;28;1466;-73
2023/12/11 07:53:33;;;;;;;;;;;;;;;22.52;21.29;98049.28;5057323;28;973;-73
2023/12/11 07:55:59;;;;;;;;;;;;;;;21.21;22.39;98037.38;5089466;28;1483;-73
2023/12/11 07:58:24;;;;;;;;;;;;;;;20.70;23.14;98034.94;5057513;28;981;-70
2023/12/11 08:00:50;;;;;;;;;;;;;;;20.73;23.29;98025.56;5057214;28;924;-70
2023/12/11 08:03:15;;;;;;;;;;;;;;;20.65;23.21;98018.47;5057435;28;901;-70
2023/12/11 08:05:41;;;;;;;;;;;;;;;20.70;23.20;98026.44;5094773;28;1683;-70
2023/12/11 08:08:07;;;;;;;;;;;;;;;20.74;23.13;98015.84;5077764;28;1909;-70
2023/12/11 08:10:32;;;;;;;;;;;;;;;20.55;23.73;98031.63;5098710;28;1478;-70
2023/12/11 08:12:58;;;;;;;;;;;;;;;20.47;23.80;98029.41;5098828;28;1492;-70
2023/12/11 08:15:24;;;;;;;;;;;;;;;20.54;23.55;98026.41;5096433;28;1333;-70
2023/12/11 08:17:49;;;;;;;;;;;;;;;20.25;24.28;98018.50;5115410;28;1011;-70
2023/12/11 08:20:16;;;;;;;;;;;;;;;20.61;23.82;98017.75;5115252;28;925;-70
2023/12/11 08:22:42;;;;;;;;;;;;;;;21.64;22.34;98025.78;5098171;28;1200;-71
2023/12/11 08:25:08;;;;;;;;;;;;;;;21.85;22.00;98047.09;5098419;28;1086;-70
2023/12/11 08:27:34;;;;;;;;;;;;;;;21.35;22.92;98053.22;5098113;28;1007;-70
2023/12/11 08:30:00;;;;;;;;;;;;;;;22.02;22.24;98045.00;5097488;28;1980;-72
2023/12/11 08:32:27;;;;;;;;;;;;;;;22.12;21.78;98029.78;5097528;28;1063;-73
2023/12/11 08:34:52;;;;;;;;;;;;;;;22.27;21.87;98027.34;5113645;28;1759;-72
2023/12/11 08:37:18;;;;;;;;;;;;;;;22.50;22.06;98029.91;5079299;28;1122;-73
2023/12/11 08:39:43;;;;;;;;;;;;;;;22.55;21.85;98003.03;5109087;28;982;-73
2023/12/11 08:42:09;;;;;;;;;;;;;;;22.38;22.21;97993.78;5076733;28;960;-71
2023/12/11 08:44:35;;;;;;;;;;;;;;;21.55;23.04;97988.81;5075729;28;1014;-69
2023/12/11 08:47:01;;;;;;;;;;;;;;;20.49;25.09;97993.00;5106112;28;1537;-68
2023/12/11 08:49:26;;;;;;;;;;;;;;;20.41;25.28;97985.88;5075832;28;1902;-70
2023/12/11 08:51:52;;;;;;;;;;;;;;;21.13;24.24;97985.81;5076539;28;978;-70
2023/12/11 08:54:18;;;;;;;;;;;;;;;21.75;23.88;97994.34;5076324;28;994;-70
2023/12/11 08:56:43;;;;;;;;;;;;;;;21.89;23.71;98002.47;5108788;28;1012;-71
2023/12/11 08:59:09;;;;;;;;;;;;;;;22.04;23.68;97991.53;5075865;28;936;-70
2023/12/11 09:01:35;;;;;;;;;;;;;;;21.42;24.36;97985.13;5075021;28;1720;-70
2023/12/11 09:04:01;;;;;;;;;;;;;;;21.43;24.51;97976.19;5075982;28;985;-70
2023/12/11 09:06:26;;;;;;;;;;;;;;;21.40;24.43;97993.25;5108222;28;852;-70
2023/12/11 09:11:02;;;;;;;;;;;;;;;21.48;24.52;97977.69;5093483;27;1228;-71
2023/12/11 09:13:27;;;;;;;;;;;;;;;21.77;24.32;97986.22;5108248;28;1213;-70
2023/12/11 09:15:53;;;;;;;;;;;;;;;22.04;24.03;97981.00;5115077;28;1608;-71
2023/12/11 09:18:18;;;;;;;;;;;;;;;22.39;23.55;97988.94;5071788;28;971;-71
2023/12/11 09:20:44;;;;;;;;;;;;;;;22.31;23.25;97988.34;5348720;22;3541;-67
2023/12/11 09:23:10;;;;;;;;;;;;;;;22.71;23.06;97983.06;5092676;28;1330;-69
2023/12/11 09:25:36;;;;;;;;;;;;;;;22.93;22.43;97980.38;5092495;28;1446;-69
2023/12/11 09:28:02;;;;;;;;;;;;;;;22.45;23.13;97964.44;5092672;28;944;-69
2023/12/11 09:30:28;;;;;;;;;;;;;;;22.14;23.46;97973.47;5093355;28;1985;-68
2023/12/11 09:32:54;;;;;;;;;;;;;;;22.20;23.70;97974.50;5073920;28;2247;-67
2023/12/11 09:35:19;;;;;;;;;;;;;;;22.12;23.67;97969.47;5093737;28;899;-67
2023/12/11 09:37:46;;;;;;;;;;;;;;;22.09;23.87;97966.28;5093821;28;930;-68
2023/12/11 09:40:12;;;;;;;;;;;;;;;22.08;23.81;97958.22;5075684;28;961;-74
2023/12/11 09:42:39;;;;;;;;;;;;;;;21.95;23.66;97943.22;5092082;28;1603;-75
2023/12/11 09:45:05;;;;;;;;;;;;;;;21.50;24.57;97952.56;5050902;28;929;-75
2023/12/11 09:47:31;;;;;;;;;;;;;;;21.76;23.90;97942.94;5017794;28;1022;-75
2023/12/11 09:49:57;;;;;;;;;;;;;;;21.75;24.32;97946.22;5034222;28;1989;-76
2023/12/11 09:52:22;;;;;;;;;;;;;;;22.15;23.69;97945.91;5032098;28;1599;-73
2023/12/11 09:54:48;;;;;;;;;;;;;;;22.20;23.43;97936.84;5014079;28;1037;-71
2023/12/11 09:57:14;;;;;;;;;;;;;;;22.35;23.32;97933.13;5031054;28;940;-75
2023/12/11 09:59:40;;;;;;;;;;;;;;;21.72;23.89;97942.25;5023387;28;1931;-75
2023/12/11 10:02:06;;;;;;;;;;;;;;;21.26;24.77;97932.94;5000889;28;1707;-75
2023/12/11 10:04:31;;;;;;;;;;;;;;;21.38;24.63;97936.31;5030579;28;966;-75
2023/12/11 10:06:57;;;;;;;;;;;;;;;21.48;24.31;97933.19;5030669;28;1422;-75
2023/12/11 10:09:35;;;;;;;;;;;;;;;21.54;24.12;97941.94;5013234;28;1954;-75
2023/12/11 10:12:03;;;;;;;;;;;;;;;21.72;23.93;97936.59;5014360;28;1020;-75
2023/12/11 10:14:33;;;;;;;;;;;;;;;21.50;24.26;97941.22;4997883;28;1338;-75
2023/12/11 10:16:58;;;;;;;;;;;;;;;21.32;24.36;97936.84;5031647;28;936;-75
2023/12/11 10:19:31;;;;;;;;;;;;;;;21.37;24.49;97937.56;5036444;28;1869;-75
2023/12/11 10:21:56;;;;;;;;;;;;;;;21.43;24.22;97941.44;5039422;28;1126;-75
2023/12/11 10:24:22;;;;;;;;;;;;;;;21.64;23.82;97929.53;5020640;28;1044;-74
2023/12/11 10:26:53;;;;;;;;;;;;;;;21.73;24.24;97938.16;5017031;28;981;-75
2023/12/11 10:29:23;;;;;;;;;;;;;;;21.54;23.90;97939.91;5002037;28;1909;-74
2023/12/11 10:31:49;;;;;;;;;;;;;;;21.41;24.25;97926.94;5000781;28;988;-74
2023/12/11 10:34:14;;;;;;;;;;;;;;;21.38;24.00;97930.66;5000810;28;982;-74
2023/12/11 10:36:50;;;;;;;;;;;;;;;21.47;24.01;97934.44;5000558;28;1002;-75
2023/12/11 10:39:15;;;;;;;;;;;;;;;21.73;23.63;97932.50;5001390;28;1905;-74
2023/12/11 10:41:44;;;;;;;;;;;;;;;21.68;23.53;97930.22;5032543;28;1017;-74
2023/12/11 10:44:19;;;;;;;;;;;;;;;21.67;23.75;97922.19;5023863;28;1182;-75
2023/12/11 10:46:45;;;;;;;;;;;;;;;21.69;23.70;97925.34;5039591;28;963;-74
2023/12/11 10:49:11;;;;;;;;;;;;;;;21.75;23.62;97923.56;5050888;28;1973;-75
2023/12/11 10:51:36;;;;;;;;;;;;;;;21.58;23.68;97925.66;5043978;28;1760;-74
2023/12/11 10:54:02;;;;;;;;;;;;;;;21.70;23.58;97922.06;5048188;28;1280;-75
2023/12/11 10:56:27;;;;;;;;;;;;;;;21.65;23.38;97919.78;5039113;28;956;-75
2023/12/11 10:58:53;;;;;;;;;;;;;;;21.55;23.62;97915.22;5039744;28;1008;-75
2023/12/11 11:01:18;;;;;;;;;;;;;;;21.42;23.89;97911.53;5055702;28;1124;-75
2023/12/11 11:03:44;;;;;;;;;;;;;;;21.52;23.83;97916.91;5074069;28;1651;-75
2023/12/11 11:06:10;;;;;;;;;;;;;;;21.67;23.53;97914.47;5040591;28;982;-74
2023/12/11 11:08:37;;;;;;;;;;;;;;;21.60;23.53;97917.50;5040540;28;1181;-75
2023/12/11 11:11:12;;;;;;;;;;;;;;;21.71;23.45;97922.84;5056813;28;1098;-75
2023/12/11 11:13:47;;;;;;;;;;;;;;;21.55;23.46;97909.53;5066127;28;1475;-75
2023/12/11 11:16:12;;;;;;;;;;;;;;;21.52;23.74;97914.09;5060368;28;1099;-74
2023/12/11 11:18:58;;;;;;;;;;;;;;;21.46;23.72;97909.41;5076759;28;1094;-75
2023/12/11 11:21:24;;;;;;;;;;;;;;;21.31;23.68;97911.84;4980024;28;1227;-75
2023/12/11 11:23:49;;;;;;;;;;;;;;;21.45;23.51;97910.63;4960238;28;1296;-75
2023/12/11 11:26:34;;;;;;;;;;;;;;;21.32;23.84;97922.69;4977452;28;1545;-74
2023/12/11 11:29:03;;;;;;;;;;;;;;;21.41;23.49;97921.28;4963935;28;1985;-75
2023/12/11 11:31:48;;;;;;;;;;;;;;;21.46;23.65;97907.38;4976612;28;961;-74
2023/12/11 11:34:13;;;;;;;;;;;;;;;21.38;23.45;97908.81;4975968;28;932;-75
2023/12/11 11:36:48;;;;;;;;;;;;;;;21.64;23.35;97904.03;4960124;28;1354;-74
2023/12/11 11:39:14;;;;;;;;;;;;;;;21.66;23.21;97895.91;4976546;28;1043;-75
2023/12/11 11:41:41;;;;;;;;;;;;;;;21.61;22.91;97902.13;4960454;28;1123;-74
2023/12/11 11:44:07;;;;;;;;;;;;;;;21.61;23.19;97896.47;4960471;28;1139;-75
2023/12/11 11:46:51;;;;;;;;;;;;;;;21.45;23.23;97896.47;4960712;28;1443;-75
2023/12/11 11:49:32;;;;;;;;;;;;;;;21.45;23.40;97899.31;4956986;29;1899;-75
2023/12/11 11:51:58;;;;;;;;;;;;;;;21.49;23.57;97900.00;4941240;29;1047;-74
2023/12/11 11:54:24;;;;;;;;;;;;;;;21.61;23.20;97901.31;4925365;29;1048;-75
2023/12/11 11:56:50;;;;;;;;;;;;;;;21.46;23.65;97900.94;4958584;28;1506;-75
2023/12/11 11:59:16;;;;;;;;;;;;;;;21.55;23.35;97892.56;5007610;28;1079;-75
2023/12/11 12:01:48;;;;;;;;;;;;;;;21.49;23.38;97883.81;4995657;28;959;-75
2023/12/11 12:04:24;;;;;;;;;;;;;;;21.36;23.30;97879.38;4979452;28;1181;-75
2023/12/11 12:06:50;;;;;;;;;;;;;;;21.69;23.07;97880.84;4959407;28;1385;-75
2023/12/11 12:09:18;;;;;;;;;;;;;;;21.52;23.11;97882.16;4959997;28;1948;-75
2023/12/11 12:11:44;;;;;;;;;;;;;;;21.47;23.42;97874.19;4960095;28;1265;-74
2023/12/11 12:14:13;;;;;;;;;;;;;;;21.58;23.35;97874.69;4959796;28;1005;-75
2023/12/11 12:16:38;;;;;;;;;;;;;;;21.58;22.92;97869.03;4974982;28;1439;-75
2023/12/11 12:19:05;;;;;;;;;;;;;;;21.57;23.06;97878.78;4995196;28;1028;-75
2023/12/11 12:21:32;;;;;;;;;;;;;;;21.51;23.42;97874.91;4995440;28;1271;-75
2023/12/11 12:24:03;;;;;;;;;;;;;;;21.41;23.31;97868.28;4979035;28;952;-75
2023/12/11 12:26:29;;;;;;;;;;;;;;;21.63;23.08;97871.31;4964862;28;1354;-75
2023/12/11 12:28:55;;;;;;;;;;;;;;;21.73;23.01;97858.88;4959592;28;1906;-75
2023/12/11 12:31:21;;;;;;;;;;;;;;;21.82;22.82;97856.19;5032193;28;972;-74
2023/12/11 12:33:46;;;;;;;;;;;;;;;21.47;23.22;97840.22;5036752;28;1235;-74
2023/12/11 12:36:12;;;;;;;;;;;;;;;21.39;23.46;97838.84;5049220;28;1394;-74
2023/12/11 12:38:37;;;;;;;;;;;;;;;21.84;23.07;97841.56;5074465;28;973;-75
2023/12/11 12:41:03;;;;;;;;;;;;;;;21.77;22.84;97836.91;5074469;28;980;-75
2023/12/11 12:43:28;;;;;;;;;;;;;;;21.47;23.59;97837.41;5074163;28;986;-74
2023/12/11 12:45:58;;;;;;;;;;;;;;;21.70;22.99;97844.81;5057099;28;1400;-75
2023/12/11 12:48:28;;;;;;;;;;;;;;;21.71;23.24;97832.22;5033903;28;1237;-74
2023/12/11 12:51:05;;;;;;;;;;;;;;;21.54;23.25;97835.16;5017909;28;1989;-75
2023/12/11 12:53:31;;;;;;;;;;;;;;;21.75;22.91;97828.06;5034241;28;1108;-75
2023/12/11 12:55:56;;;;;;;;;;;;;;;21.56;23.37;97848.88;5025377;28;1335;-74
2023/12/11 12:58:25;;;;;;;;;;;;;;;21.61;23.41;97831.34;5037313;28;1193;-74